sensor_id;sensor_type;location;lat;lon;timestamp;pressure;altitude;pressure_sealevel;temperature;humidity
19510;BME280;9896;42.486;26.506;2023-04-07T00:01:06;99565.22;;;7.22;62.82
19510;BME280;9896;42.486;26.506;2023-04-07T00:03:32;99553.63;;;7.29;59.52
19510;BME280;9896;42.486;26.506;2023-04-07T00:05:57;99563.59;;;7.21;60.21
19510;BME280;9896;42.486;26.506;2023-04-07T00:08:23;99555.78;;;7.19;60.77
19510;BME280;9896;42.486;26.506;2023-04-07T00:10:48;99571.34;;;7.16;59.62
19510;BME280;9896;42.486;26.506;2023-04-07T00:13:14;99571.78;;;7.19;60.43
19510;BME280;9896;42.486;26.506;2023-04-07T00:15:40;99562.53;;;7.15;59.33
19510;BME280;9896;42.486;26.506;2023-04-07T00:18:05;99569.00;;;7.06;60.54
19510;BME280;9896;42.486;26.506;2023-04-07T00:20:31;99562.78;;;6.99;61.39
19510;BME280;9896;42.486;26.506;2023-04-07T00:22:56;99570.75;;;6.92;62.02
19510;BME280;9896;42.486;26.506;2023-04-07T00:25:22;99575.03;;;6.93;63.04
19510;BME280;9896;42.486;26.506;2023-04-07T00:27:48;99574.03;;;6.94;62.88
19510;BME280;9896;42.486;26.506;2023-04-07T00:30:13;99566.03;;;6.94;63.59
19510;BME280;9896;42.486;26.506;2023-04-07T00:32:39;99569.69;;;6.93;63.85
19510;BME280;9896;42.486;26.506;2023-04-07T00:35:05;99565.34;;;6.86;63.23
19510;BME280;9896;42.486;26.506;2023-04-07T00:37:31;99575.81;;;6.87;64.04
19510;BME280;9896;42.486;26.506;2023-04-07T00:39:56;99580.44;;;6.79;65.18
19510;BME280;9896;42.486;26.506;2023-04-07T00:42:23;99572.00;;;6.75;64.90
19510;BME280;9896;42.486;26.506;2023-04-07T00:44:49;99571.22;;;6.81;64.05
19510;BME280;9896;42.486;26.506;2023-04-07T00:47:14;99582.66;;;6.75;65.38
19510;BME280;9896;42.486;26.506;2023-04-07T00:49:40;99588.69;;;6.84;64.83
19510;BME280;9896;42.486;26.506;2023-04-07T00:52:07;99589.56;;;6.91;63.27
19510;BME280;9896;42.486;26.506;2023-04-07T00:54:36;99588.34;;;6.93;63.92
19510;BME280;9896;42.486;26.506;2023-04-07T00:57:01;99586.88;;;6.84;62.53
19510;BME280;9896;42.486;26.506;2023-04-07T00:59:27;99590.47;;;6.98;61.88
19510;BME280;9896;42.486;26.506;2023-04-07T01:02:11;99584.56;;;7.03;62.54
19510;BME280;9896;42.486;26.506;2023-04-07T01:07:10;99585.50;;;6.95;61.23
19510;BME280;9896;42.486;26.506;2023-04-07T01:09:56;99580.19;;;6.95;62.05
19510;BME280;9896;42.486;26.506;2023-04-07T01:12:35;99580.22;;;7.01;62.62
19510;BME280;9896;42.486;26.506;2023-04-07T01:15:09;99576.50;;;6.96;62.67
19510;BME280;9896;42.486;26.506;2023-04-07T01:17:38;99577.13;;;6.98;61.52
19510;BME280;9896;42.486;26.506;2023-04-07T01:20:06;99577.91;;;6.92;61.72
19510;BME280;9896;42.486;26.506;2023-04-07T01:22:42;99578.34;;;6.95;62.05
19510;BME280;9896;42.486;26.506;2023-04-07T01:28:13;99583.47;;;6.97;63.05
19510;BME280;9896;42.486;26.506;2023-04-07T01:30:40;99579.53;;;6.93;62.69
19510;BME280;9896;42.486;26.506;2023-04-07T01:33:09;99585.69;;;6.93;61.90
19510;BME280;9896;42.486;26.506;2023-04-07T01:35:36;99584.25;;;6.91;62.52
19510;BME280;9896;42.486;26.506;2023-04-07T01:38:03;99577.34;;;6.75;64.10
19510;BME280;9896;42.486;26.506;2023-04-07T01:40:32;99590.31;;;6.85;63.64
19510;BME280;9896;42.486;26.506;2023-04-07T01:42:58;99576.94;;;6.78;63.67
19510;BME280;9896;42.486;26.506;2023-04-07T01:45:25;99575.56;;;6.82;63.85
19510;BME280;9896;42.486;26.506;2023-04-07T01:47:52;99591.94;;;6.79;63.60
19510;BME280;9896;42.486;26.506;2023-04-07T01:50:19;99584.06;;;6.92;62.88
19510;BME280;9896;42.486;26.506;2023-04-07T01:52:46;99578.59;;;6.79;62.68
19510;BME280;9896;42.486;26.506;2023-04-07T01:55:12;99592.53;;;6.81;63.21
19510;BME280;9896;42.486;26.506;2023-04-07T01:57:38;99587.44;;;6.80;65.47
19510;BME280;9896;42.486;26.506;2023-04-07T02:00:04;99590.97;;;6.87;64.31
19510;BME280;9896;42.486;26.506;2023-04-07T02:02:33;99592.66;;;6.73;65.49
19510;BME280;9896;42.486;26.506;2023-04-07T02:05:04;99594.50;;;6.73;66.63
19510;BME280;9896;42.486;26.506;2023-04-07T02:07:48;99592.59;;;6.67;67.01
19510;BME280;9896;42.486;26.506;2023-04-07T02:10:16;99595.00;;;6.62;68.35
19510;BME280;9896;42.486;26.506;2023-04-07T02:12:45;99587.13;;;6.53;68.23
19510;BME280;9896;42.486;26.506;2023-04-07T02:15:11;99599.16;;;6.64;71.42
19510;BME280;9896;42.486;26.506;2023-04-07T02:17:39;99597.72;;;6.32;72.92
19510;BME280;9896;42.486;26.506;2023-04-07T02:20:10;99595.41;;;6.44;72.58
19510;BME280;9896;42.486;26.506;2023-04-07T02:22:37;99597.84;;;6.39;70.81
19510;BME280;9896;42.486;26.506;2023-04-07T02:25:28;99596.34;;;6.51;70.74
19510;BME280;9896;42.486;26.506;2023-04-07T02:27:55;99600.44;;;6.53;72.74
19510;BME280;9896;42.486;26.506;2023-04-07T02:30:21;99610.38;;;6.45;77.99
19510;BME280;9896;42.486;26.506;2023-04-07T02:32:47;99607.56;;;6.32;80.58
19510;BME280;9896;42.486;26.506;2023-04-07T02:35:14;99621.25;;;6.29;81.03
19510;BME280;9896;42.486;26.506;2023-04-07T02:37:41;99610.41;;;6.30;82.43
19510;BME280;9896;42.486;26.506;2023-04-07T02:40:07;99616.81;;;6.36;81.19
19510;BME280;9896;42.486;26.506;2023-04-07T02:42:33;99610.53;;;6.22;83.91
19510;BME280;9896;42.486;26.506;2023-04-07T02:44:58;99611.34;;;6.08;86.42
19510;BME280;9896;42.486;26.506;2023-04-07T02:47:24;99609.34;;;6.10;88.96
19510;BME280;9896;42.486;26.506;2023-04-07T02:49:50;99605.41;;;6.06;90.40
19510;BME280;9896;42.486;26.506;2023-04-07T02:52:15;99607.88;;;6.22;90.67
19510;BME280;9896;42.486;26.506;2023-04-07T02:54:41;99606.97;;;6.15;90.71
19510;BME280;9896;42.486;26.506;2023-04-07T02:57:07;99617.34;;;6.10;91.46
19510;BME280;9896;42.486;26.506;2023-04-07T02:59:32;99620.47;;;5.99;91.82
19510;BME280;9896;42.486;26.506;2023-04-07T03:01:58;99620.25;;;5.86;92.35
19510;BME280;9896;42.486;26.506;2023-04-07T03:04:23;99623.91;;;5.99;91.81
19510;BME280;9896;42.486;26.506;2023-04-07T03:06:49;99629.94;;;5.79;91.75
19510;BME280;9896;42.486;26.506;2023-04-07T03:09:14;99631.13;;;5.76;91.83
19510;BME280;9896;42.486;26.506;2023-04-07T03:11:40;99623.41;;;5.67;92.69
19510;BME280;9896;42.486;26.506;2023-04-07T03:14:08;99632.69;;;5.71;93.22
19510;BME280;9896;42.486;26.506;2023-04-07T03:16:34;99619.88;;;5.74;93.11
19510;BME280;9896;42.486;26.506;2023-04-07T03:18:59;99622.50;;;5.59;92.24
19510;BME280;9896;42.486;26.506;2023-04-07T03:21:24;99621.66;;;5.59;93.38
19510;BME280;9896;42.486;26.506;2023-04-07T03:23:50;99627.94;;;5.66;92.69
19510;BME280;9896;42.486;26.506;2023-04-07T03:26:16;99612.16;;;5.79;92.15
19510;BME280;9896;42.486;26.506;2023-04-07T03:28:41;99626.00;;;5.75;92.38
19510;BME280;9896;42.486;26.506;2023-04-07T03:31:07;99632.50;;;5.72;92.82
19510;BME280;9896;42.486;26.506;2023-04-07T03:33:32;99638.13;;;5.77;92.35
19510;BME280;9896;42.486;26.506;2023-04-07T03:35:58;99630.84;;;5.71;92.95
19510;BME280;9896;42.486;26.506;2023-04-07T03:38:25;99639.56;;;5.80;92.73
19510;BME280;9896;42.486;26.506;2023-04-07T03:40:50;99641.31;;;5.73;91.91
19510;BME280;9896;42.486;26.506;2023-04-07T03:43:16;99640.75;;;5.62;91.83
19510;BME280;9896;42.486;26.506;2023-04-07T03:45:42;99645.13;;;5.41;92.54
19510;BME280;9896;42.486;26.506;2023-04-07T03:48:07;99656.28;;;5.74;91.75
19510;BME280;9896;42.486;26.506;2023-04-07T03:50:39;99647.34;;;5.67;92.43
19510;BME280;9896;42.486;26.506;2023-04-07T03:53:05;99655.47;;;5.50;91.57
19510;BME280;9896;42.486;26.506;2023-04-07T03:55:32;99662.75;;;5.56;90.76
19510;BME280;9896;42.486;26.506;2023-04-07T03:57:58;99670.06;;;5.54;91.62
19510;BME280;9896;42.486;26.506;2023-04-07T04:00:24;99664.88;;;5.76;91.73
19510;BME280;9896;42.486;26.506;2023-04-07T04:02:51;99656.81;;;5.69;91.03
19510;BME280;9896;42.486;26.506;2023-04-07T04:05:16;99665.81;;;5.68;90.68
19510;BME280;9896;42.486;26.506;2023-04-07T04:07:42;99670.94;;;5.70;90.95
19510;BME280;9896;42.486;26.506;2023-04-07T04:10:07;99671.88;;;5.77;90.07
19510;BME280;9896;42.486;26.506;2023-04-07T04:12:33;99663.44;;;5.73;90.04
19510;BME280;9896;42.486;26.506;2023-04-07T04:14:59;99657.91;;;5.75;90.98
19510;BME280;9896;42.486;26.506;2023-04-07T04:17:24;99662.97;;;5.84;89.73
19510;BME280;9896;42.486;26.506;2023-04-07T04:19:51;99667.66;;;5.82;90.54
19510;BME280;9896;42.486;26.506;2023-04-07T04:22:16;99669.59;;;5.74;90.47
19510;BME280;9896;42.486;26.506;2023-04-07T04:24:42;99679.25;;;5.67;90.02
19510;BME280;9896;42.486;26.506;2023-04-07T04:27:07;99667.34;;;5.62;90.47
19510;BME280;9896;42.486;26.506;2023-04-07T04:29:33;99675.59;;;5.68;90.95
19510;BME280;9896;42.486;26.506;2023-04-07T04:31:58;99686.69;;;5.94;90.54
19510;BME280;9896;42.486;26.506;2023-04-07T04:34:24;99687.06;;;5.91;91.16
19510;BME280;9896;42.486;26.506;2023-04-07T04:36:49;99677.44;;;5.90;90.89
19510;BME280;9896;42.486;26.506;2023-04-07T04:39:16;99691.66;;;5.97;91.27
19510;BME280;9896;42.486;26.506;2023-04-07T04:41:41;99691.56;;;5.90;91.86
19510;BME280;9896;42.486;26.506;2023-04-07T04:44:07;99691.56;;;5.90;91.24
19510;BME280;9896;42.486;26.506;2023-04-07T04:46:32;99693.44;;;5.82;91.33
19510;BME280;9896;42.486;26.506;2023-04-07T04:48:58;99699.38;;;5.69;91.25
19510;BME280;9896;42.486;26.506;2023-04-07T04:51:23;99693.91;;;5.85;91.90
19510;BME280;9896;42.486;26.506;2023-04-07T04:53:49;99705.63;;;5.76;93.15
19510;BME280;9896;42.486;26.506;2023-04-07T04:56:14;99707.69;;;5.89;92.59
19510;BME280;9896;42.486;26.506;2023-04-07T04:58:40;99717.16;;;5.69;93.65
19510;BME280;9896;42.486;26.506;2023-04-07T05:01:13;99722.78;;;5.74;95.04
19510;BME280;9896;42.486;26.506;2023-04-07T05:03:38;99732.41;;;5.75;95.03
19510;BME280;9896;42.486;26.506;2023-04-07T05:06:04;99715.34;;;5.69;95.94
19510;BME280;9896;42.486;26.506;2023-04-07T05:08:30;99729.28;;;5.71;95.61
19510;BME280;9896;42.486;26.506;2023-04-07T05:10:56;99730.75;;;5.74;95.18
19510;BME280;9896;42.486;26.506;2023-04-07T05:13:21;99732.25;;;5.53;92.52
19510;BME280;9896;42.486;26.506;2023-04-07T05:15:47;99746.44;;;5.46;91.84
19510;BME280;9896;42.486;26.506;2023-04-07T05:18:13;99747.50;;;5.59;94.92
19510;BME280;9896;42.486;26.506;2023-04-07T05:20:39;99742.47;;;5.65;94.54
19510;BME280;9896;42.486;26.506;2023-04-07T05:23:04;99740.66;;;5.80;96.05
19510;BME280;9896;42.486;26.506;2023-04-07T05:25:31;99748.72;;;5.72;98.67
19510;BME280;9896;42.486;26.506;2023-04-07T05:27:57;99749.91;;;5.92;97.52
19510;BME280;9896;42.486;26.506;2023-04-07T05:30:23;99734.31;;;5.89;94.89
19510;BME280;9896;42.486;26.506;2023-04-07T05:32:49;99740.13;;;5.84;95.86
19510;BME280;9896;42.486;26.506;2023-04-07T05:35:15;99741.97;;;5.84;95.21
19510;BME280;9896;42.486;26.506;2023-04-07T05:37:40;99740.88;;;5.78;95.59
19510;BME280;9896;42.486;26.506;2023-04-07T05:40:06;99739.72;;;5.95;94.74
19510;BME280;9896;42.486;26.506;2023-04-07T05:42:32;99744.34;;;6.16;93.49
19510;BME280;9896;42.486;26.506;2023-04-07T05:44:57;99736.09;;;6.26;93.19
19510;BME280;9896;42.486;26.506;2023-04-07T05:47:23;99741.59;;;6.24;94.67
19510;BME280;9896;42.486;26.506;2023-04-07T05:49:49;99740.69;;;6.17;95.83
19510;BME280;9896;42.486;26.506;2023-04-07T05:52:14;99753.63;;;6.20;95.77
19510;BME280;9896;42.486;26.506;2023-04-07T05:54:40;99750.41;;;6.25;96.59
19510;BME280;9896;42.486;26.506;2023-04-07T05:57:06;99754.28;;;6.37;96.78
19510;BME280;9896;42.486;26.506;2023-04-07T05:59:32;99759.97;;;6.34;97.12
19510;BME280;9896;42.486;26.506;2023-04-07T06:01:58;99758.25;;;6.41;94.70
19510;BME280;9896;42.486;26.506;2023-04-07T06:04:23;99763.84;;;6.31;93.75
19510;BME280;9896;42.486;26.506;2023-04-07T06:06:49;99769.59;;;6.20;92.68
19510;BME280;9896;42.486;26.506;2023-04-07T06:09:14;99759.97;;;6.34;91.12
19510;BME280;9896;42.486;26.506;2023-04-07T06:11:40;99767.69;;;6.14;90.40
19510;BME280;9896;42.486;26.506;2023-04-07T06:14:05;99769.13;;;6.17;89.63
19510;BME280;9896;42.486;26.506;2023-04-07T06:16:31;99776.56;;;6.06;89.07
19510;BME280;9896;42.486;26.506;2023-04-07T06:18:56;99772.25;;;6.05;89.07
19510;BME280;9896;42.486;26.506;2023-04-07T06:21:22;99772.22;;;5.91;89.54
19510;BME280;9896;42.486;26.506;2023-04-07T06:23:48;99781.91;;;6.06;88.45
19510;BME280;9896;42.486;26.506;2023-04-07T06:26:13;99771.25;;;6.06;89.18
19510;BME280;9896;42.486;26.506;2023-04-07T06:28:39;99774.13;;;6.34;88.83
19510;BME280;9896;42.486;26.506;2023-04-07T06:31:04;99777.16;;;6.46;88.61
19510;BME280;9896;42.486;26.506;2023-04-07T06:33:31;99771.63;;;6.33;88.82
19510;BME280;9896;42.486;26.506;2023-04-07T06:35:56;99775.34;;;6.46;88.05
19510;BME280;9896;42.486;26.506;2023-04-07T06:38:23;99781.03;;;6.58;86.73
19510;BME280;9896;42.486;26.506;2023-04-07T06:40:50;99793.97;;;6.61;85.42
19510;BME280;9896;42.486;26.506;2023-04-07T06:43:15;99796.81;;;6.30;87.63
19510;BME280;9896;42.486;26.506;2023-04-07T06:45:41;99781.13;;;6.50;88.20
19510;BME280;9896;42.486;26.506;2023-04-07T06:48:06;99790.47;;;6.61;87.64
19510;BME280;9896;42.486;26.506;2023-04-07T06:50:32;99782.84;;;6.58;89.14
19510;BME280;9896;42.486;26.506;2023-04-07T06:52:57;99797.47;;;6.76;88.37
19510;BME280;9896;42.486;26.506;2023-04-07T06:55:23;99799.75;;;6.65;88.43
19510;BME280;9896;42.486;26.506;2023-04-07T06:57:48;99796.72;;;6.82;88.28
19510;BME280;9896;42.486;26.506;2023-04-07T07:00:16;99804.69;;;6.97;86.09
19510;BME280;9896;42.486;26.506;2023-04-07T07:02:43;99806.38;;;6.69;86.15
19510;BME280;9896;42.486;26.506;2023-04-07T07:05:08;99805.09;;;6.94;86.11
19510;BME280;9896;42.486;26.506;2023-04-07T07:07:36;99805.19;;;7.00;85.52
19510;BME280;9896;42.486;26.506;2023-04-07T07:10:01;99803.22;;;7.09;85.26
19510;BME280;9896;42.486;26.506;2023-04-07T07:12:27;99809.84;;;7.13;84.37
19510;BME280;9896;42.486;26.506;2023-04-07T07:14:52;99805.25;;;7.43;83.68
19510;BME280;9896;42.486;26.506;2023-04-07T07:17:18;99812.81;;;7.39;82.84
19510;BME280;9896;42.486;26.506;2023-04-07T07:19:43;99820.84;;;7.61;81.52
19510;BME280;9896;42.486;26.506;2023-04-07T07:22:09;99813.41;;;7.56;82.74
19510;BME280;9896;42.486;26.506;2023-04-07T07:24:34;99825.88;;;7.34;83.56
19510;BME280;9896;42.486;26.506;2023-04-07T07:27:00;99832.28;;;7.04;86.05
19510;BME280;9896;42.486;26.506;2023-04-07T07:29:27;99836.88;;;7.10;85.74
19510;BME280;9896;42.486;26.506;2023-04-07T07:31:52;99837.25;;;7.07;86.11
19510;BME280;9896;42.486;26.506;2023-04-07T07:34:18;99829.34;;;6.99;85.98
19510;BME280;9896;42.486;26.506;2023-04-07T07:36:43;99827.03;;;7.25;85.69
19510;BME280;9896;42.486;26.506;2023-04-07T07:39:08;99815.84;;;7.00;85.45
19510;BME280;9896;42.486;26.506;2023-04-07T07:41:35;99827.13;;;7.17;84.76
19510;BME280;9896;42.486;26.506;2023-04-07T07:44:00;99838.91;;;7.08;83.05
19510;BME280;9896;42.486;26.506;2023-04-07T07:46:26;99838.34;;;7.13;83.39
19510;BME280;9896;42.486;26.506;2023-04-07T07:48:51;99832.66;;;7.16;83.11
19510;BME280;9896;42.486;26.506;2023-04-07T07:51:17;99838.88;;;7.23;82.31
19510;BME280;9896;42.486;26.506;2023-04-07T07:53:44;99845.78;;;7.32;82.21
19510;BME280;9896;42.486;26.506;2023-04-07T07:56:10;99840.94;;;7.42;82.84
19510;BME280;9896;42.486;26.506;2023-04-07T07:58:36;99842.84;;;7.84;79.85
19510;BME280;9896;42.486;26.506;2023-04-07T08:01:01;99853.53;;;7.84;79.18
19510;BME280;9896;42.486;26.506;2023-04-07T08:03:27;99851.16;;;7.53;78.51
19510;BME280;9896;42.486;26.506;2023-04-07T08:05:52;99856.16;;;7.63;80.08
19510;BME280;9896;42.486;26.506;2023-04-07T08:08:17;99852.56;;;7.70;79.73
19510;BME280;9896;42.486;26.506;2023-04-07T08:10:43;99856.44;;;7.68;80.16
19510;BME280;9896;42.486;26.506;2023-04-07T08:13:08;99857.78;;;7.42;80.41
19510;BME280;9896;42.486;26.506;2023-04-07T08:15:34;99862.44;;;7.91;79.03
19510;BME280;9896;42.486;26.506;2023-04-07T08:18:00;99862.94;;;8.01;79.54
19510;BME280;9896;42.486;26.506;2023-04-07T08:20:29;99869.03;;;7.74;80.29
19510;BME280;9896;42.486;26.506;2023-04-07T08:22:54;99862.09;;;7.79;79.81
19510;BME280;9896;42.486;26.506;2023-04-07T08:25:20;99863.97;;;8.00;79.16
19510;BME280;9896;42.486;26.506;2023-04-07T08:27:45;99853.72;;;7.61;79.87
19510;BME280;9896;42.486;26.506;2023-04-07T08:30:11;99866.63;;;7.79;79.45
19510;BME280;9896;42.486;26.506;2023-04-07T08:32:39;99867.56;;;7.71;80.49
19510;BME280;9896;42.486;26.506;2023-04-07T08:35:05;99859.59;;;7.57;81.96
19510;BME280;9896;42.486;26.506;2023-04-07T08:37:32;99861.28;;;7.79;81.62
19510;BME280;9896;42.486;26.506;2023-04-07T08:39:58;99866.84;;;7.99;81.60
19510;BME280;9896;42.486;26.506;2023-04-07T08:42:27;99868.38;;;8.29;80.07
19510;BME280;9896;42.486;26.506;2023-04-07T08:44:55;99859.44;;;8.22;78.10
19510;BME280;9896;42.486;26.506;2023-04-07T08:47:22;99857.47;;;8.09;78.43
19510;BME280;9896;42.486;26.506;2023-04-07T08:49:51;99858.41;;;8.44;75.27
19510;BME280;9896;42.486;26.506;2023-04-07T08:52:23;99870.53;;;8.19;73.51
19510;BME280;9896;42.486;26.506;2023-04-07T08:54:54;99857.44;;;8.03;72.73
19510;BME280;9896;42.486;26.506;2023-04-07T08:57:20;99862.56;;;8.25;73.32
19510;BME280;9896;42.486;26.506;2023-04-07T08:59:47;99872.25;;;8.75;70.53
19510;BME280;9896;42.486;26.506;2023-04-07T09:02:13;99867.28;;;9.07;68.66
19510;BME280;9896;42.486;26.506;2023-04-07T09:04:40;99866.44;;;9.00;68.27
19510;BME280;9896;42.486;26.506;2023-04-07T09:07:07;99866.97;;;9.29;65.74
19510;BME280;9896;42.486;26.506;2023-04-07T09:09:32;99867.41;;;8.92;66.94
19510;BME280;9896;42.486;26.506;2023-04-07T09:11:58;99866.31;;;8.80;67.11
19510;BME280;9896;42.486;26.506;2023-04-07T09:14:23;99859.75;;;9.23;65.49
19510;BME280;9896;42.486;26.506;2023-04-07T09:16:48;99856.56;;;9.48;63.32
19510;BME280;9896;42.486;26.506;2023-04-07T09:19:14;99858.41;;;8.44;66.78
19510;BME280;9896;42.486;26.506;2023-04-07T09:21:49;99861.03;;;8.93;65.83
19510;BME280;9896;42.486;26.506;2023-04-07T09:24:26;99843.13;;;9.34;63.20
19510;BME280;9896;42.486;26.506;2023-04-07T09:27:12;99870.53;;;9.37;63.06
19510;BME280;9896;42.486;26.506;2023-04-07T09:29:40;99851.13;;;9.89;61.75
19510;BME280;9896;42.486;26.506;2023-04-07T09:32:07;99852.38;;;9.93;61.44
19510;BME280;9896;42.486;26.506;2023-04-07T09:34:35;99856.44;;;9.75;62.24
19510;BME280;9896;42.486;26.506;2023-04-07T09:37:01;99867.34;;;8.85;63.18
19510;BME280;9896;42.486;26.506;2023-04-07T09:39:27;99865.38;;;9.01;62.77
19510;BME280;9896;42.486;26.506;2023-04-07T09:41:53;99857.22;;;9.09;61.58
19510;BME280;9896;42.486;26.506;2023-04-07T09:44:19;99868.44;;;8.91;62.84
19510;BME280;9896;42.486;26.506;2023-04-07T09:49:15;99859.94;;;9.69;61.22
19510;BME280;9896;42.486;26.506;2023-04-07T09:52:01;99849.25;;;9.69;60.54
19510;BME280;9896;42.486;26.506;2023-04-07T09:54:36;99862.47;;;9.97;59.48
19510;BME280;9896;42.486;26.506;2023-04-07T09:57:06;99863.56;;;9.49;53.51
19510;BME280;9896;42.486;26.506;2023-04-07T09:59:33;99861.97;;;9.67;53.09
19510;BME280;9896;42.486;26.506;2023-04-07T10:01:59;99861.00;;;9.82;52.49
19510;BME280;9896;42.486;26.506;2023-04-07T10:04:25;99863.22;;;9.65;53.37
19510;BME280;9896;42.486;26.506;2023-04-07T10:06:52;99858.81;;;9.44;54.05
19510;BME280;9896;42.486;26.506;2023-04-07T10:09:19;99863.84;;;9.67;53.18
19510;BME280;9896;42.486;26.506;2023-04-07T10:11:47;99857.59;;;9.47;53.80
19510;BME280;9896;42.486;26.506;2023-04-07T10:14:14;99861.41;;;9.24;55.30
19510;BME280;9896;42.486;26.506;2023-04-07T10:16:41;99855.75;;;9.54;53.54
19510;BME280;9896;42.486;26.506;2023-04-07T10:19:07;99854.16;;;9.12;55.05
19510;BME280;9896;42.486;26.506;2023-04-07T10:21:35;99864.78;;;8.99;55.22
19510;BME280;9896;42.486;26.506;2023-04-07T10:24:08;99863.19;;;8.76;55.05
19510;BME280;9896;42.486;26.506;2023-04-07T10:26:38;99865.53;;;8.93;57.89
19510;BME280;9896;42.486;26.506;2023-04-07T10:29:09;99866.16;;;8.88;57.90
19510;BME280;9896;42.486;26.506;2023-04-07T10:31:36;99864.94;;;8.35;60.45
19510;BME280;9896;42.486;26.506;2023-04-07T10:34:03;99864.75;;;8.64;60.42
19510;BME280;9896;42.486;26.506;2023-04-07T10:36:30;99867.34;;;8.85;58.93
19510;BME280;9896;42.486;26.506;2023-04-07T10:41:35;99859.59;;;8.97;59.05
19510;BME280;9896;42.486;26.506;2023-04-07T10:44:04;99871.78;;;9.41;58.05
19510;BME280;9896;42.486;26.506;2023-04-07T10:47:02;99863.91;;;8.92;57.54
19510;BME280;9896;42.486;26.506;2023-04-07T10:49:29;99864.09;;;9.24;58.05
19510;BME280;9896;42.486;26.506;2023-04-07T10:54:35;99857.59;;;10.40;54.55
19510;BME280;9896;42.486;26.506;2023-04-07T10:59:26;99862.13;;;10.20;55.20
19510;BME280;9896;42.486;26.506;2023-04-07T11:04:44;99867.06;;;10.56;54.26
19510;BME280;9896;42.486;26.506;2023-04-07T11:07:10;99858.63;;;10.65;54.36
19510;BME280;9896;42.486;26.506;2023-04-07T11:09:36;99854.41;;;11.15;53.55
19510;BME280;9896;42.486;26.506;2023-04-07T11:12:02;99856.72;;;11.56;51.60
19510;BME280;9896;42.486;26.506;2023-04-07T11:14:31;99856.91;;;11.55;51.25
19510;BME280;9896;42.486;26.506;2023-04-07T11:16:59;99853.19;;;11.11;52.22
19510;BME280;9896;42.486;26.506;2023-04-07T11:19:27;99846.56;;;11.07;52.43
19510;BME280;9896;42.486;26.506;2023-04-07T11:22:12;99858.97;;;10.03;57.45
19510;BME280;9896;42.486;26.506;2023-04-07T11:24:38;99856.47;;;9.82;59.31
19510;BME280;9896;42.486;26.506;2023-04-07T11:27:04;99850.38;;;10.27;57.34
19510;BME280;9896;42.486;26.506;2023-04-07T11:29:32;99846.25;;;10.45;56.07
19510;BME280;9896;42.486;26.506;2023-04-07T11:31:59;99839.13;;;11.09;52.84
19510;BME280;9896;42.486;26.506;2023-04-07T11:34:29;99840.56;;;11.18;52.97
19510;BME280;9896;42.486;26.506;2023-04-07T11:36:55;99841.97;;;12.10;49.22
19510;BME280;9896;42.486;26.506;2023-04-07T11:39:25;99840.66;;;12.69;47.89
19510;BME280;9896;42.486;26.506;2023-04-07T11:41:57;99836.63;;;12.03;49.20
19510;BME280;9896;42.486;26.506;2023-04-07T11:44:23;99849.44;;;12.33;47.44
19510;BME280;9896;42.486;26.506;2023-04-07T11:46:57;99839.06;;;11.29;46.97
19510;BME280;9896;42.486;26.506;2023-04-07T11:49:25;99840.63;;;10.86;49.40
19510;BME280;9896;42.486;26.506;2023-04-07T11:52:02;99839.28;;;11.21;49.93
19510;BME280;9896;42.486;26.506;2023-04-07T11:54:41;99833.44;;;11.44;48.56
19510;BME280;9896;42.486;26.506;2023-04-07T11:57:07;99828.84;;;11.51;48.79
19510;BME280;9896;42.486;26.506;2023-04-07T11:59:36;99840.88;;;12.18;47.55
19510;BME280;9896;42.486;26.506;2023-04-07T12:02:02;99838.03;;;12.37;46.98
19510;BME280;9896;42.486;26.506;2023-04-07T12:04:28;99832.66;;;12.37;47.60
19510;BME280;9896;42.486;26.506;2023-04-07T12:06:53;99840.34;;;12.58;46.91
19510;BME280;9896;42.486;26.506;2023-04-07T12:09:32;99839.44;;;12.15;47.96
19510;BME280;9896;42.486;26.506;2023-04-07T12:12:01;99833.91;;;12.10;48.30
19510;BME280;9896;42.486;26.506;2023-04-07T12:14:27;99834.72;;;12.10;49.20
19510;BME280;9896;42.486;26.506;2023-04-07T12:16:54;99828.09;;;12.38;47.72
19510;BME280;9896;42.486;26.506;2023-04-07T12:19:28;99826.66;;;12.60;47.39
19510;BME280;9896;42.486;26.506;2023-04-07T12:21:54;99830.63;;;12.76;47.27
19510;BME280;9896;42.486;26.506;2023-04-07T12:24:20;99825.72;;;12.23;48.11
19510;BME280;9896;42.486;26.506;2023-04-07T12:26:46;99830.00;;;11.17;51.56
19510;BME280;9896;42.486;26.506;2023-04-07T12:29:12;99831.44;;;11.33;51.81
19510;BME280;9896;42.486;26.506;2023-04-07T12:31:38;99823.22;;;11.59;51.70
19510;BME280;9896;42.486;26.506;2023-04-07T12:34:04;99831.72;;;11.56;50.83
19510;BME280;9896;42.486;26.506;2023-04-07T12:36:30;99825.44;;;11.31;51.82
19510;BME280;9896;42.486;26.506;2023-04-07T12:38:56;99823.94;;;11.41;53.12
19510;BME280;9896;42.486;26.506;2023-04-07T12:41:21;99816.69;;;11.42;52.63
19510;BME280;9896;42.486;26.506;2023-04-07T12:43:48;99832.56;;;11.56;52.01
19510;BME280;9896;42.486;26.506;2023-04-07T12:46:13;99842.53;;;11.43;52.45
19510;BME280;9896;42.486;26.506;2023-04-07T12:48:39;99837.53;;;11.53;52.27
19510;BME280;9896;42.486;26.506;2023-04-07T12:51:04;99839.41;;;11.46;52.49
19510;BME280;9896;42.486;26.506;2023-04-07T12:53:30;99837.53;;;11.46;53.29
19510;BME280;9896;42.486;26.506;2023-04-07T12:55:56;99837.63;;;11.71;52.97
19510;BME280;9896;42.486;26.506;2023-04-07T12:58:23;99832.00;;;12.17;52.00
19510;BME280;9896;42.486;26.506;2023-04-07T13:00:48;99825.47;;;11.62;53.70
19510;BME280;9896;42.486;26.506;2023-04-07T13:03:14;99837.97;;;12.44;51.91
19510;BME280;9896;42.486;26.506;2023-04-07T13:05:39;99828.59;;;12.53;51.81
19510;BME280;9896;42.486;26.506;2023-04-07T13:08:05;99827.03;;;12.64;49.98
19510;BME280;9896;42.486;26.506;2023-04-07T13:10:32;99818.88;;;12.95;49.50
19510;BME280;9896;42.486;26.506;2023-04-07T13:12:57;99820.66;;;12.83;49.25
19510;BME280;9896;42.486;26.506;2023-04-07T13:15:23;99817.72;;;12.84;49.78
19510;BME280;9896;42.486;26.506;2023-04-07T13:17:48;99824.22;;;13.20;49.32
19510;BME280;9896;42.486;26.506;2023-04-07T13:20:14;99812.66;;;13.31;48.77
19510;BME280;9896;42.486;26.506;2023-04-07T13:22:40;99821.47;;;13.56;49.26
19510;BME280;9896;42.486;26.506;2023-04-07T13:25:05;99812.47;;;13.62;48.52
19510;BME280;9896;42.486;26.506;2023-04-07T13:27:31;99820.41;;;12.84;49.89